sensor_id;sensor_type;location;lat;lon;timestamp;P1;durP1;ratioP1;P2;durP2;ratioP2
54977;SDS011;40873;47.522;19.106;2022-11-13T00:01:15;60.58;;;32.60;;
54977;SDS011;40873;47.522;19.106;2022-11-13T00:03:44;63.40;;;33.47;;
54977;SDS011;40873;47.522;19.106;2022-11-13T00:06:12;61.38;;;32.35;;
54977;SDS011;40873;47.522;19.106;2022-11-13T00:08:39;63.60;;;33.67;;
54977;SDS011;40873;47.522;19.106;2022-11-13T00:11:07;66.93;;;33.95;;
54977;SDS011;40873;47.522;19.106;2022-11-13T00:13:40;61.75;;;33.30;;
54977;SDS011;40873;47.522;19.106;2022-11-13T00:16:09;66.15;;;32.88;;
54977;SDS011;40873;47.522;19.106;2022-11-13T00:18:38;65.53;;;35.92;;
54977;SDS011;40873;47.522;19.106;2022-11-13T00:21:05;60.75;;;33.08;;
54977;SDS011;40873;47.522;19.106;2022-11-13T00:23:34;63.30;;;35.28;;
54977;SDS011;40873;47.522;19.106;2022-11-13T00:26:05;67.90;;;33.45;;
54977;SDS011;40873;47.522;19.106;2022-11-13T00:28:34;64.15;;;34.78;;
54977;SDS011;40873;47.522;19.106;2022-11-13T00:31:02;61.92;;;33.38;;
54977;SDS011;40873;47.522;19.106;2022-11-13T00:33:29;61.78;;;32.78;;
54977;SDS011;40873;47.522;19.106;2022-11-13T00:36:17;62.92;;;34.25;;
54977;SDS011;40873;47.522;19.106;2022-11-13T00:38:51;59.25;;;33.00;;
54977;SDS011;40873;47.522;19.106;2022-11-13T00:41:18;57.45;;;31.80;;
54977;SDS011;40873;47.522;19.106;2022-11-13T00:43:45;57.20;;;32.95;;
54977;SDS011;40873;47.522;19.106;2022-11-13T00:46:12;59.03;;;33.03;;
54977;SDS011;40873;47.522;19.106;2022-11-13T00:48:39;59.65;;;32.20;;
54977;SDS011;40873;47.522;19.106;2022-11-13T00:51:06;61.85;;;33.70;;
54977;SDS011;40873;47.522;19.106;2022-11-13T00:53:33;66.90;;;33.05;;
54977;SDS011;40873;47.522;19.106;2022-11-13T00:56:00;63.47;;;32.58;;
54977;SDS011;40873;47.522;19.106;2022-11-13T00:58:27;61.75;;;33.85;;
54977;SDS011;40873;47.522;19.106;2022-11-13T01:00:55;64.75;;;33.20;;
54977;SDS011;40873;47.522;19.106;2022-11-13T01:03:30;67.95;;;33.25;;
54977;SDS011;40873;47.522;19.106;2022-11-13T01:05:57;70.68;;;31.98;;
54977;SDS011;40873;47.522;19.106;2022-11-13T01:08:24;65.18;;;33.15;;
54977;SDS011;40873;47.522;19.106;2022-11-13T01:10:51;70.63;;;33.42;;
54977;SDS011;40873;47.522;19.106;2022-11-13T01:13:19;60.35;;;34.97;;
54977;SDS011;40873;47.522;19.106;2022-11-13T01:15:46;61.15;;;34.70;;
54977;SDS011;40873;47.522;19.106;2022-11-13T01:18:13;70.32;;;35.75;;
54977;SDS011;40873;47.522;19.106;2022-11-13T01:20:40;79.47;;;35.00;;
54977;SDS011;40873;47.522;19.106;2022-11-13T01:23:07;90.43;;;35.70;;
54977;SDS011;40873;47.522;19.106;2022-11-13T01:25:34;92.93;;;34.72;;
54977;SDS011;40873;47.522;19.106;2022-11-13T01:28:01;75.82;;;35.33;;
54977;SDS011;40873;47.522;19.106;2022-11-13T01:30:29;77.95;;;35.13;;
54977;SDS011;40873;47.522;19.106;2022-11-13T01:32:55;90.40;;;36.10;;
54977;SDS011;40873;47.522;19.106;2022-11-13T01:35:22;92.35;;;33.70;;
54977;SDS011;40873;47.522;19.106;2022-11-13T01:37:49;76.80;;;31.67;;
54977;SDS011;40873;47.522;19.106;2022-11-13T01:40:16;85.40;;;32.60;;
54977;SDS011;40873;47.522;19.106;2022-11-13T01:42:43;66.13;;;30.80;;
54977;SDS011;40873;47.522;19.106;2022-11-13T01:48:15;65.68;;;28.73;;
54977;SDS011;40873;47.522;19.106;2022-11-13T01:50:41;56.72;;;27.75;;
54977;SDS011;40873;47.522;19.106;2022-11-13T01:53:08;58.17;;;25.85;;
54977;SDS011;40873;47.522;19.106;2022-11-13T01:55:35;55.47;;;26.20;;
54977;SDS011;40873;47.522;19.106;2022-11-13T01:58:02;62.25;;;27.73;;
54977;SDS011;40873;47.522;19.106;2022-11-13T02:00:31;59.90;;;26.33;;
54977;SDS011;40873;47.522;19.106;2022-11-13T02:02:58;53.97;;;26.52;;
54977;SDS011;40873;47.522;19.106;2022-11-13T02:05:25;62.65;;;28.85;;
54977;SDS011;40873;47.522;19.106;2022-11-13T02:07:52;52.75;;;25.42;;
54977;SDS011;40873;47.522;19.106;2022-11-13T02:10:19;68.18;;;29.08;;
54977;SDS011;40873;47.522;19.106;2022-11-13T02:12:47;58.88;;;26.92;;
54977;SDS011;40873;47.522;19.106;2022-11-13T02:15:16;68.30;;;28.42;;
54977;SDS011;40873;47.522;19.106;2022-11-13T02:17:51;76.93;;;26.63;;
54977;SDS011;40873;47.522;19.106;2022-11-13T02:23:20;67.15;;;26.30;;
54977;SDS011;40873;47.522;19.106;2022-11-13T02:26:06;79.22;;;26.30;;
54977;SDS011;40873;47.522;19.106;2022-11-13T02:28:36;78.72;;;27.67;;
54977;SDS011;40873;47.522;19.106;2022-11-13T02:31:09;70.47;;;27.10;;
54977;SDS011;40873;47.522;19.106;2022-11-13T02:33:38;64.78;;;26.67;;
54977;SDS011;40873;47.522;19.106;2022-11-13T02:36:05;64.05;;;26.40;;
54977;SDS011;40873;47.522;19.106;2022-11-13T02:38:35;69.22;;;27.40;;
54977;SDS011;40873;47.522;19.106;2022-11-13T02:41:04;52.45;;;26.55;;
54977;SDS011;40873;47.522;19.106;2022-11-13T02:43:31;66.22;;;25.65;;
54977;SDS011;40873;47.522;19.106;2022-11-13T02:45:58;62.72;;;27.00;;
54977;SDS011;40873;47.522;19.106;2022-11-13T02:48:25;83.40;;;26.67;;
54977;SDS011;40873;47.522;19.106;2022-11-13T02:50:52;75.25;;;26.33;;
54977;SDS011;40873;47.522;19.106;2022-11-13T02:53:19;85.38;;;26.70;;
54977;SDS011;40873;47.522;19.106;2022-11-13T02:55:46;69.05;;;26.55;;
54977;SDS011;40873;47.522;19.106;2022-11-13T02:58:13;69.43;;;26.40;;
54977;SDS011;40873;47.522;19.106;2022-11-13T03:00:40;83.00;;;26.52;;
54977;SDS011;40873;47.522;19.106;2022-11-13T03:03:07;69.75;;;25.27;;
54977;SDS011;40873;47.522;19.106;2022-11-13T03:05:34;69.97;;;26.75;;
54977;SDS011;40873;47.522;19.106;2022-11-13T03:08:01;68.38;;;24.33;;
54977;SDS011;40873;47.522;19.106;2022-11-13T03:10:27;58.58;;;23.38;;
54977;SDS011;40873;47.522;19.106;2022-11-13T03:12:54;62.78;;;25.02;;
54977;SDS011;40873;47.522;19.106;2022-11-13T03:15:21;80.40;;;25.67;;
54977;SDS011;40873;47.522;19.106;2022-11-13T03:17:49;53.25;;;25.95;;
54977;SDS011;40873;47.522;19.106;2022-11-13T03:20:16;61.35;;;26.55;;
54977;SDS011;40873;47.522;19.106;2022-11-13T03:22:43;59.55;;;25.73;;
54977;SDS011;40873;47.522;19.106;2022-11-13T03:25:10;51.70;;;25.52;;
54977;SDS011;40873;47.522;19.106;2022-11-13T03:27:37;79.03;;;26.63;;
54977;SDS011;40873;47.522;19.106;2022-11-13T03:30:04;60.60;;;24.73;;
54977;SDS011;40873;47.522;19.106;2022-11-13T03:32:32;79.05;;;27.02;;
54977;SDS011;40873;47.522;19.106;2022-11-13T03:34:59;81.25;;;25.85;;
54977;SDS011;40873;47.522;19.106;2022-11-13T03:37:26;77.85;;;26.20;;
54977;SDS011;40873;47.522;19.106;2022-11-13T03:39:52;77.68;;;25.30;;
54977;SDS011;40873;47.522;19.106;2022-11-13T03:42:19;85.70;;;26.40;;
54977;SDS011;40873;47.522;19.106;2022-11-13T03:44:46;56.50;;;25.70;;
54977;SDS011;40873;47.522;19.106;2022-11-13T03:47:13;98.30;;;26.40;;
54977;SDS011;40873;47.522;19.106;2022-11-13T03:49:40;64.35;;;25.15;;
54977;SDS011;40873;47.522;19.106;2022-11-13T03:52:07;61.83;;;25.73;;
54977;SDS011;40873;47.522;19.106;2022-11-13T03:54:34;67.07;;;23.95;;
54977;SDS011;40873;47.522;19.106;2022-11-13T03:57:01;78.97;;;25.08;;
54977;SDS011;40873;47.522;19.106;2022-11-13T03:59:28;75.93;;;24.40;;
54977;SDS011;40873;47.522;19.106;2022-11-13T04:01:55;73.80;;;22.70;;
54977;SDS011;40873;47.522;19.106;2022-11-13T04:04:22;55.13;;;23.75;;
54977;SDS011;40873;47.522;19.106;2022-11-13T04:06:50;56.50;;;23.65;;
54977;SDS011;40873;47.522;19.106;2022-11-13T04:09:17;80.10;;;23.85;;
54977;SDS011;40873;47.522;19.106;2022-11-13T04:11:44;83.78;;;22.98;;
54977;SDS011;40873;47.522;19.106;2022-11-13T04:14:11;85.75;;;25.80;;
54977;SDS011;40873;47.522;19.106;2022-11-13T04:16:37;77.13;;;21.70;;
54977;SDS011;40873;47.522;19.106;2022-11-13T04:19:04;72.80;;;23.20;;
54977;SDS011;40873;47.522;19.106;2022-11-13T04:21:31;71.53;;;21.27;;
54977;SDS011;40873;47.522;19.106;2022-11-13T04:23:58;93.00;;;25.30;;
54977;SDS011;40873;47.522;19.106;2022-11-13T04:26:25;73.72;;;22.58;;
54977;SDS011;40873;47.522;19.106;2022-11-13T04:28:52;83.75;;;22.63;;
54977;SDS011;40873;47.522;19.106;2022-11-13T04:31:19;91.68;;;22.58;;
54977;SDS011;40873;47.522;19.106;2022-11-13T04:33:46;72.65;;;21.73;;
54977;SDS011;40873;47.522;19.106;2022-11-13T04:36:13;73.15;;;23.30;;
54977;SDS011;40873;47.522;19.106;2022-11-13T04:38:39;74.22;;;22.77;;
54977;SDS011;40873;47.522;19.106;2022-11-13T04:41:06;85.88;;;24.15;;
54977;SDS011;40873;47.522;19.106;2022-11-13T04:43:52;84.65;;;24.48;;
54977;SDS011;40873;47.522;19.106;2022-11-13T04:46:19;57.78;;;21.95;;
54977;SDS011;40873;47.522;19.106;2022-11-13T04:48:46;80.78;;;22.58;;
54977;SDS011;40873;47.522;19.106;2022-11-13T04:51:13;76.85;;;22.73;;
54977;SDS011;40873;47.522;19.106;2022-11-13T04:53:39;57.65;;;22.73;;
54977;SDS011;40873;47.522;19.106;2022-11-13T04:56:06;66.38;;;22.73;;
54977;SDS011;40873;47.522;19.106;2022-11-13T04:58:33;58.88;;;23.23;;
54977;SDS011;40873;47.522;19.106;2022-11-13T05:01:00;48.53;;;21.65;;
54977;SDS011;40873;47.522;19.106;2022-11-13T05:03:27;68.95;;;21.27;;
54977;SDS011;40873;47.522;19.106;2022-11-13T05:06:00;50.65;;;19.00;;
54977;SDS011;40873;47.522;19.106;2022-11-13T05:08:29;49.85;;;20.63;;
54977;SDS011;40873;47.522;19.106;2022-11-13T05:10:56;42.03;;;20.60;;
54977;SDS011;40873;47.522;19.106;2022-11-13T05:13:23;40.03;;;20.77;;
54977;SDS011;40873;47.522;19.106;2022-11-13T05:15:50;54.20;;;21.13;;
54977;SDS011;40873;47.522;19.106;2022-11-13T05:18:17;60.13;;;21.52;;
54977;SDS011;40873;47.522;19.106;2022-11-13T05:20:44;53.30;;;20.98;;
54977;SDS011;40873;47.522;19.106;2022-11-13T05:23:11;51.97;;;22.88;;
54977;SDS011;40873;47.522;19.106;2022-11-13T05:25:38;51.25;;;21.38;;
54977;SDS011;40873;47.522;19.106;2022-11-13T05:28:05;60.53;;;20.23;;
54977;SDS011;40873;47.522;19.106;2022-11-13T05:30:32;44.92;;;21.20;;
54977;SDS011;40873;47.522;19.106;2022-11-13T05:32:58;48.65;;;21.92;;
54977;SDS011;40873;47.522;19.106;2022-11-13T05:35:25;47.28;;;20.65;;
54977;SDS011;40873;47.522;19.106;2022-11-13T05:37:52;56.47;;;21.50;;
54977;SDS011;40873;47.522;19.106;2022-11-13T05:40:20;63.25;;;21.58;;
54977;SDS011;40873;47.522;19.106;2022-11-13T05:42:47;57.33;;;19.65;;
54977;SDS011;40873;47.522;19.106;2022-11-13T05:45:14;53.15;;;20.10;;
54977;SDS011;40873;47.522;19.106;2022-11-13T05:47:41;57.58;;;21.02;;
54977;SDS011;40873;47.522;19.106;2022-11-13T05:50:08;49.47;;;20.20;;
54977;SDS011;40873;47.522;19.106;2022-11-13T05:52:35;56.38;;;20.98;;
54977;SDS011;40873;47.522;19.106;2022-11-13T05:55:02;52.95;;;21.48;;
54977;SDS011;40873;47.522;19.106;2022-11-13T05:57:29;68.47;;;20.75;;
54977;SDS011;40873;47.522;19.106;2022-11-13T05:59:56;65.28;;;20.63;;
54977;SDS011;40873;47.522;19.106;2022-11-13T06:02:23;59.67;;;18.05;;
54977;SDS011;40873;47.522;19.106;2022-11-13T06:04:50;71.40;;;21.30;;
54977;SDS011;40873;47.522;19.106;2022-11-13T06:07:24;40.67;;;18.45;;
54977;SDS011;40873;47.522;19.106;2022-11-13T06:09:51;45.67;;;19.02;;
54977;SDS011;40873;47.522;19.106;2022-11-13T06:12:18;54.20;;;20.63;;
54977;SDS011;40873;47.522;19.106;2022-11-13T06:14:45;51.90;;;19.92;;
54977;SDS011;40873;47.522;19.106;2022-11-13T06:17:12;57.83;;;18.65;;
54977;SDS011;40873;47.522;19.106;2022-11-13T06:19:38;36.08;;;18.02;;
54977;SDS011;40873;47.522;19.106;2022-11-13T06:22:05;46.78;;;18.85;;
54977;SDS011;40873;47.522;19.106;2022-11-13T06:24:32;61.28;;;19.27;;
54977;SDS011;40873;47.522;19.106;2022-11-13T06:26:59;62.15;;;20.25;;
54977;SDS011;40873;47.522;19.106;2022-11-13T06:29:26;66.57;;;20.60;;
54977;SDS011;40873;47.522;19.106;2022-11-13T06:31:53;55.80;;;19.77;;
54977;SDS011;40873;47.522;19.106;2022-11-13T06:34:20;54.75;;;19.02;;
54977;SDS011;40873;47.522;19.106;2022-11-13T06:36:47;62.47;;;20.38;;
54977;SDS011;40873;47.522;19.106;2022-11-13T06:39:14;45.30;;;18.83;;
54977;SDS011;40873;47.522;19.106;2022-11-13T06:41:41;46.80;;;19.00;;
54977;SDS011;40873;47.522;19.106;2022-11-13T06:44:08;43.13;;;19.17;;
54977;SDS011;40873;47.522;19.106;2022-11-13T06:46:34;62.63;;;18.08;;
54977;SDS011;40873;47.522;19.106;2022-11-13T06:49:01;58.75;;;18.13;;
54977;SDS011;40873;47.522;19.106;2022-11-13T06:51:29;43.75;;;18.08;;
54977;SDS011;40873;47.522;19.106;2022-11-13T06:53:56;43.33;;;17.23;;
54977;SDS011;40873;47.522;19.106;2022-11-13T06:56:24;47.83;;;17.95;;
54977;SDS011;40873;47.522;19.106;2022-11-13T06:58:52;47.25;;;17.58;;
54977;SDS011;40873;47.522;19.106;2022-11-13T07:01:21;62.42;;;16.98;;
54977;SDS011;40873;47.522;19.106;2022-11-13T07:03:50;50.97;;;17.00;;
54977;SDS011;40873;47.522;19.106;2022-11-13T07:06:17;43.95;;;19.25;;
54977;SDS011;40873;47.522;19.106;2022-11-13T07:08:46;46.80;;;17.05;;
54977;SDS011;40873;47.522;19.106;2022-11-13T07:11:15;44.25;;;18.17;;
54977;SDS011;40873;47.522;19.106;2022-11-13T07:13:43;61.83;;;17.48;;
54977;SDS011;40873;47.522;19.106;2022-11-13T07:16:11;55.58;;;17.70;;
54977;SDS011;40873;47.522;19.106;2022-11-13T07:18:52;51.33;;;18.23;;
54977;SDS011;40873;47.522;19.106;2022-11-13T07:21:19;54.20;;;17.83;;
54977;SDS011;40873;47.522;19.106;2022-11-13T07:23:47;39.53;;;18.33;;
54977;SDS011;40873;47.522;19.106;2022-11-13T07:26:15;63.20;;;19.50;;
54977;SDS011;40873;47.522;19.106;2022-11-13T07:28:42;52.80;;;17.25;;
54977;SDS011;40873;47.522;19.106;2022-11-13T07:31:10;76.15;;;20.35;;
54977;SDS011;40873;47.522;19.106;2022-11-13T07:33:38;65.80;;;17.88;;
54977;SDS011;40873;47.522;19.106;2022-11-13T07:36:05;67.57;;;19.05;;
54977;SDS011;40873;47.522;19.106;2022-11-13T07:38:33;46.60;;;18.67;;
54977;SDS011;40873;47.522;19.106;2022-11-13T07:41:01;70.18;;;20.00;;
54977;SDS011;40873;47.522;19.106;2022-11-13T07:43:28;52.08;;;20.00;;
54977;SDS011;40873;47.522;19.106;2022-11-13T07:45:56;88.40;;;20.75;;
54977;SDS011;40873;47.522;19.106;2022-11-13T07:48:24;41.60;;;17.40;;
54977;SDS011;40873;47.522;19.106;2022-11-13T07:50:54;48.22;;;19.45;;
54977;SDS011;40873;47.522;19.106;2022-11-13T07:53:21;42.08;;;17.52;;
54977;SDS011;40873;47.522;19.106;2022-11-13T07:55:48;57.30;;;18.77;;
54977;SDS011;40873;47.522;19.106;2022-11-13T07:58:15;62.95;;;19.63;;
54977;SDS011;40873;47.522;19.106;2022-11-13T08:00:43;48.83;;;16.63;;
54977;SDS011;40873;47.522;19.106;2022-11-13T08:03:11;51.13;;;18.70;;
54977;SDS011;40873;47.522;19.106;2022-11-13T08:05:40;48.28;;;18.38;;
54977;SDS011;40873;47.522;19.106;2022-11-13T08:08:10;54.58;;;17.80;;
54977;SDS011;40873;47.522;19.106;2022-11-13T08:10:37;46.05;;;18.58;;
54977;SDS011;40873;47.522;19.106;2022-11-13T08:13:06;62.15;;;18.08;;
54977;SDS011;40873;47.522;19.106;2022-11-13T08:15:33;45.17;;;18.58;;
54977;SDS011;40873;47.522;19.106;2022-11-13T08:18:01;36.88;;;17.73;;
54977;SDS011;40873;47.522;19.106;2022-11-13T08:20:29;50.33;;;18.00;;
54977;SDS011;40873;47.522;19.106;2022-11-13T08:22:57;63.80;;;21.40;;
54977;SDS011;40873;47.522;19.106;2022-11-13T08:25:26;41.08;;;18.48;;
54977;SDS011;40873;47.522;19.106;2022-11-13T08:27:54;47.72;;;17.35;;
54977;SDS011;40873;47.522;19.106;2022-11-13T08:30:22;40.35;;;16.48;;
54977;SDS011;40873;47.522;19.106;2022-11-13T08:32:50;41.88;;;19.23;;
54977;SDS011;40873;47.522;19.106;2022-11-13T08:35:18;44.97;;;18.63;;
54977;SDS011;40873;47.522;19.106;2022-11-13T08:37:49;50.13;;;17.85;;
54977;SDS011;40873;47.522;19.106;2022-11-13T08:40:16;40.47;;;19.23;;
54977;SDS011;40873;47.522;19.106;2022-11-13T08:42:43;63.53;;;18.77;;
54977;SDS011;40873;47.522;19.106;2022-11-13T08:45:10;37.40;;;19.05;;
54977;SDS011;40873;47.522;19.106;2022-11-13T08:47:37;50.80;;;17.75;;
54977;SDS011;40873;47.522;19.106;2022-11-13T08:50:04;38.72;;;17.92;;
54977;SDS011;40873;47.522;19.106;2022-11-13T08:52:31;38.25;;;17.00;;
54977;SDS011;40873;47.522;19.106;2022-11-13T08:54:58;60.22;;;16.98;;
54977;SDS011;40873;47.522;19.106;2022-11-13T08:57:25;54.80;;;17.67;;
54977;SDS011;40873;47.522;19.106;2022-11-13T08:59:52;42.38;;;17.05;;
54977;SDS011;40873;47.522;19.106;2022-11-13T09:02:19;39.72;;;17.95;;
54977;SDS011;40873;47.522;19.106;2022-11-13T09:04:46;37.88;;;17.98;;
54977;SDS011;40873;47.522;19.106;2022-11-13T09:07:13;44.42;;;19.13;;
54977;SDS011;40873;47.522;19.106;2022-11-13T09:09:40;42.30;;;17.92;;
54977;SDS011;40873;47.522;19.106;2022-11-13T09:12:07;46.20;;;18.85;;
54977;SDS011;40873;47.522;19.106;2022-11-13T09:14:34;40.75;;;17.35;;
54977;SDS011;40873;47.522;19.106;2022-11-13T09:17:02;60.40;;;19.73;;
54977;SDS011;40873;47.522;19.106;2022-11-13T09:19:29;70.88;;;19.17;;
54977;SDS011;40873;47.522;19.106;2022-11-13T09:21:56;42.00;;;17.25;;
54977;SDS011;40873;47.522;19.106;2022-11-13T09:24:23;38.53;;;18.27;;
54977;SDS011;40873;47.522;19.106;2022-11-13T09:26:50;48.67;;;18.30;;
54977;SDS011;40873;47.522;19.106;2022-11-13T09:29:17;37.17;;;15.65;;
54977;SDS011;40873;47.522;19.106;2022-11-13T09:31:44;58.47;;;16.77;;
54977;SDS011;40873;47.522;19.106;2022-11-13T09:34:11;48.15;;;18.52;;
54977;SDS011;40873;47.522;19.106;2022-11-13T09:36:38;44.65;;;17.77;;
54977;SDS011;40873;47.522;19.106;2022-11-13T09:39:05;41.13;;;17.92;;
54977;SDS011;40873;47.522;19.106;2022-11-13T09:41:41;42.80;;;17.65;;
54977;SDS011;40873;47.522;19.106;2022-11-13T09:44:23;35.85;;;16.98;;
54977;SDS011;40873;47.522;19.106;2022-11-13T09:47:02;39.97;;;17.48;;
54977;SDS011;40873;47.522;19.106;2022-11-13T09:49:32;38.58;;;17.05;;
54977;SDS011;40873;47.522;19.106;2022-11-13T09:52:16;37.42;;;17.90;;
54977;SDS011;40873;47.522;19.106;2022-11-13T09:54:52;43.83;;;17.88;;
54977;SDS011;40873;47.522;19.106;2022-11-13T09:57:23;36.75;;;17.63;;
54977;SDS011;40873;47.522;19.106;2022-11-13T10:05:17;44.30;;;19.40;;
54977;SDS011;40873;47.522;19.106;2022-11-13T10:13:23;43.33;;;19.60;;
54977;SDS011;40873;47.522;19.106;2022-11-13T10:15:56;55.17;;;21.15;;
54977;SDS011;40873;47.522;19.106;2022-11-13T10:18:32;51.15;;;20.67;;
54977;SDS011;40873;47.522;19.106;2022-11-13T10:21:08;46.63;;;23.48;;
54977;SDS011;40873;47.522;19.106;2022-11-13T10:23:43;40.17;;;19.30;;
54977;SDS011;40873;47.522;19.106;2022-11-13T10:26:17;45.35;;;21.48;;
54977;SDS011;40873;47.522;19.106;2022-11-13T10:28:46;40.40;;;19.38;;
54977;SDS011;40873;47.522;19.106;2022-11-13T10:31:19;43.75;;;21.20;;
54977;SDS011;40873;47.522;19.106;2022-11-13T10:33:46;39.33;;;20.58;;
54977;SDS011;40873;47.522;19.106;2022-11-13T10:36:23;44.67;;;19.43;;
54977;SDS011;40873;47.522;19.106;2022-11-13T10:39:04;42.90;;;20.80;;
54977;SDS011;40873;47.522;19.106;2022-11-13T10:41:32;45.13;;;20.65;;
54977;SDS011;40873;47.522;19.106;2022-11-13T10:47:04;40.55;;;19.83;;
54977;SDS011;40873;47.522;19.106;2022-11-13T10:52:01;42.60;;;19.58;;
54977;SDS011;40873;47.522;19.106;2022-11-13T10:54:36;49.90;;;20.38;;
54977;SDS011;40873;47.522;19.106;2022-11-13T10:57:04;44.10;;;21.45;;
54977;SDS011;40873;47.522;19.106;2022-11-13T10:59:51;45.17;;;21.13;;
54977;SDS011;40873;47.522;19.106;2022-11-13T11:02:22;38.97;;;20.08;;
54977;SDS011;40873;47.522;19.106;2022-11-13T11:05:01;44.85;;;21.70;;
54977;SDS011;40873;47.522;19.106;2022-11-13T11:07:33;38.67;;;21.17;;
54977;SDS011;40873;47.522;19.106;2022-11-13T11:10:20;50.55;;;22.58;;
54977;SDS011;40873;47.522;19.106;2022-11-13T11:12:54;48.25;;;22.83;;
54977;SDS011;40873;47.522;19.106;2022-11-13T11:15:23;46.38;;;22.38;;
54977;SDS011;40873;47.522;19.106;2022-11-13T11:17:58;49.13;;;23.30;;
54977;SDS011;40873;47.522;19.106;2022-11-13T11:20:42;49.40;;;22.00;;
54977;SDS011;40873;47.522;19.106;2022-11-13T11:23:20;42.10;;;20.98;;
54977;SDS011;40873;47.522;19.106;2022-11-13T11:25:56;48.70;;;21.52;;
54977;SDS011;40873;47.522;19.106;2022-11-13T11:31:07;41.92;;;19.92;;
54977;SDS011;40873;47.522;19.106;2022-11-13T11:33:57;39.53;;;20.20;;
54977;SDS011;40873;47.522;19.106;2022-11-13T11:41:54;44.05;;;21.63;;
54977;SDS011;40873;47.522;19.106;2022-11-13T11:44:28;47.78;;;21.38;;
54977;SDS011;40873;47.522;19.106;2022-11-13T11:47:02;43.40;;;21.80;;
54977;SDS011;40873;47.522;19.106;2022-11-13T11:49:29;47.05;;;21.88;;
54977;SDS011;40873;47.522;19.106;2022-11-13T11:57:11;43.03;;;20.83;;
54977;SDS011;40873;47.522;19.106;2022-11-13T12:00:12;42.35;;;21.55;;
54977;SDS011;40873;47.522;19.106;2022-11-13T12:03:02;44.97;;;20.98;;
54977;SDS011;40873;47.522;19.106;2022-11-13T12:11:29;46.40;;;23.13;;
54977;SDS011;40873;47.522;19.106;2022-11-13T12:16:30;46.47;;;21.88;;
54977;SDS011;40873;47.522;19.106;2022-11-13T12:22:24;44.10;;;21.27;;
54977;SDS011;40873;47.522;19.106;2022-11-13T12:25:07;45.65;;;22.40;;
54977;SDS011;40873;47.522;19.106;2022-11-13T12:27:56;39.25;;;20.90;;
54977;SDS011;40873;47.522;19.106;2022-11-13T12:30:35;42.75;;;21.80;;
54977;SDS011;40873;47.522;19.106;2022-11-13T12:35:59;42.42;;;20.73;;
54977;SDS011;40873;47.522;19.106;2022-11-13T12:46:07;42.60;;;22.27;;
54977;SDS011;40873;47.522;19.106;2022-11-13T12:48:37;41.10;;;20.75;;
54977;SDS011;40873;47.522;19.106;2022-11-13T12:51:07;42.65;;;21.33;;
54977;SDS011;40873;47.522;19.106;2022-11-13T12:53:44;43.17;;;23.10;;
54977;SDS011;40873;47.522;19.106;2022-11-13T12:59:01;45.58;;;23.30;;
54977;SDS011;40873;47.522;19.106;2022-11-13T13:08:46;47.70;;;21.98;;
54977;SDS011;40873;47.522;19.106;2022-11-13T13:17:04;43.92;;;22.30;;
54977;SDS011;40873;47.522;19.106;2022-11-13T13:19:40;39.63;;;21.48;;
54977;SDS011;40873;47.522;19.106;2022-11-13T13:22:10;46.92;;;21.50;;
54977;SDS011;40873;47.522;19.106;2022-11-13T13:24:57;40.33;;;21.05;;
54977;SDS011;40873;47.522;19.106;2022-11-13T13:27:32;40.35;;;22.15;;
54977;SDS011;40873;47.522;19.106;2022-11-13T13:39:17;42.63;;;19.95;;
54977;SDS011;40873;47.522;19.106;2022-11-13T13:47:28;43.00;;;21.00;;
54977;SDS011;40873;47.522;19.106;2022-11-13T13:49:59;46.08;;;23.10;;
54977;SDS011;40873;47.522;19.106;2022-11-13T13:52:30;38.30;;;19.60;;
54977;SDS011;40873;47.522;19.106;2022-11-13T13:55:01;40.67;;;21.08;;
54977;SDS011;40873;47.522;19.106;2022-11-13T13:57:29;38.28;;;20.67;;
54977;SDS011;40873;47.522;19.106;2022-11-13T14:00:08;39.35;;;19.42;;
54977;SDS011;40873;47.522;19.106;2022-11-13T14:02:46;40.42;;;17.95;;
54977;SDS011;40873;47.522;19.106;2022-11-13T14:05:28;38.88;;;19.55;;
54977;SDS011;40873;47.522;19.106;2022-11-13T14:07:56;35.63;;;19.33;;
54977;SDS011;40873;47.522;19.106;2022-11-13T14:10:27;36.35;;;19.30;;
54977;SDS011;40873;47.522;19.106;2022-11-13T14:12:58;38.78;;;19.35;;
54977;SDS011;40873;47.522;19.106;2022-11-13T14:15:29;41.67;;;21.15;;
54977;SDS011;40873;47.522;19.106;2022-11-13T14:18:10;43.35;;;21.98;;
54977;SDS011;40873;47.522;19.106;2022-11-13T14:20:47;43.55;;;21.70;;
54977;SDS011;40873;47.522;19.106;2022-11-13T14:23:23;43.03;;;20.95;;
54977;SDS011;40873;47.522;19.106;2022-11-13T14:25:53;41.65;;;20.60;;
54977;SDS011;40873;47.522;19.106;2022-11-13T14:28:23;46.13;;;21.55;;
54977;SDS011;40873;47.522;19.106;2022-11-13T14:30:56;48.88;;;21.63;;
54977;SDS011;40873;47.522;19.106;2022-11-13T14:33:29;45.55;;;22.40;;
54977;SDS011;40873;47.522;19.106;2022-11-13T14:35:58;46.85;;;22.98;;
54977;SDS011;40873;47.522;19.106;2022-11-13T14:38:29;48.55;;;21.65;;
54977;SDS011;40873;47.522;19.106;2022-11-13T14:41:00;39.75;;;21.15;;
54977;SDS011;40873;47.522;19.106;2022-11-13T14:43:30;45.75;;;22.67;;
54977;SDS011;40873;47.522;19.106;2022-11-13T14:45:59;42.70;;;23.20;;
54977;SDS011;40873;47.522;19.106;2022-11-13T14:48:28;43.47;;;22.48;;
54977;SDS011;40873;47.522;19.106;2022-11-13T14:51:00;46.40;;;23.17;;
54977;SDS011;40873;47.522;19.106;2022-11-13T14:53:34;49.33;;;23.23;;
54977;SDS011;40873;47.522;19.106;2022-11-13T14:56:04;44.72;;;21.48;;
54977;SDS011;40873;47.522;19.106;2022-11-13T14:58:35;41.78;;;22.13;;
54977;SDS011;40873;47.522;19.106;2022-11-13T15:01:13;46.80;;;22.80;;
54977;SDS011;40873;47.522;19.106;2022-11-13T15:03:43;43.22;;;22.95;;
54977;SDS011;40873;47.522;19.106;2022-11-13T15:06:15;47.05;;;23.13;;
54977;SDS011;40873;47.522;19.106;2022-11-13T15:08:45;45.92;;;22.58;;
54977;SDS011;40873;47.522;19.106;2022-11-13T15:11:16;48.70;;;25.17;;
54977;SDS011;40873;47.522;19.106;2022-11-13T15:13:44;47.63;;;24.05;;
54977;SDS011;40873;47.522;19.106;2022-11-13T15:16:16;46.95;;;24.17;;
54977;SDS011;40873;47.522;19.106;2022-11-13T15:21:17;40.08;;;20.85;;
54977;SDS011;40873;47.522;19.106;2022-11-13T15:23:44;44.28;;;22.70;;
54977;SDS011;40873;47.522;19.106;2022-11-13T15:26:11;42.08;;;23.00;;
54977;SDS011;40873;47.522;19.106;2022-11-13T15:28:38;46.10;;;22.83;;
54977;SDS011;40873;47.522;19.106;2022-11-13T15:31:13;47.58;;;24.15;;
54977;SDS011;40873;47.522;19.106;2022-11-13T15:33:46;44.95;;;21.55;;
54977;SDS011;40873;47.522;19.106;2022-11-13T15:36:13;46.65;;;24.42;;
54977;SDS011;40873;47.522;19.106;2022-11-13T15:38:41;49.10;;;24.00;;
54977;SDS011;40873;47.522;19.106;2022-11-13T15:41:12;47.55;;;24.38;;
54977;SDS011;40873;47.522;19.106;2022-11-13T15:43:42;45.03;;;22.90;;
54977;SDS011;40873;47.522;19.106;2022-11-13T15:46:11;44.58;;;23.30;;
54977;SDS011;40873;47.522;19.106;2022-11-13T15:48:43;50.30;;;24.70;;
54977;SDS011;40873;47.522;19.106;2022-11-13T15:53:44;44.78;;;23.00;;
54977;SDS011;40873;47.522;19.106;2022-11-13T15:56:14;52.75;;;23.85;;